sensor_id;sensor_type;location;lat;lon;timestamp;pressure;altitude;pressure_sealevel;temperature;humidity
42887;BME280;29032;56.028;92.904;2023-06-10T00:04:48;98867.44;;;20.96;54.52
42887;BME280;29032;56.028;92.904;2023-06-10T00:09:51;98872.59;;;21.00;54.54
42887;BME280;29032;56.028;92.904;2023-06-10T00:20:13;98867.91;;;20.92;54.87
42887;BME280;29032;56.028;92.904;2023-06-10T00:25:35;98878.06;;;21.19;54.42
42887;BME280;29032;56.028;92.904;2023-06-10T00:30:37;98877.25;;;20.95;55.38
42887;BME280;29032;56.028;92.904;2023-06-10T00:35:39;98887.56;;;21.02;55.31
42887;BME280;29032;56.028;92.904;2023-06-10T00:41:01;98885.97;;;21.32;54.39
42887;BME280;29032;56.028;92.904;2023-06-10T00:46:03;98893.88;;;21.12;55.13
42887;BME280;29032;56.028;92.904;2023-06-10T00:51:06;98895.88;;;21.22;54.89
42887;BME280;29032;56.028;92.904;2023-06-10T00:56:09;98899.09;;;21.28;54.72
42887;BME280;29032;56.028;92.904;2023-06-10T01:01:12;98906.91;;;21.17;54.51
42887;BME280;29032;56.028;92.904;2023-06-10T01:06:20;98921.91;;;21.32;54.24
42887;BME280;29032;56.028;92.904;2023-06-10T01:11:34;98916.38;;;21.22;54.66
42887;BME280;29032;56.028;92.904;2023-06-10T01:16:38;98918.31;;;20.98;54.33
42887;BME280;29032;56.028;92.904;2023-06-10T01:21:42;98922.38;;;20.95;55.33
42887;BME280;29032;56.028;92.904;2023-06-10T01:32:43;98929.22;;;20.92;55.39
42887;BME280;29032;56.028;92.904;2023-06-10T01:48:29;98953.53;;;20.54;55.70
42887;BME280;29032;56.028;92.904;2023-06-10T01:53:32;98950.84;;;20.56;55.78
42887;BME280;29032;56.028;92.904;2023-06-10T01:58:34;98951.38;;;20.43;56.19
42887;BME280;29032;56.028;92.904;2023-06-10T02:03:36;98927.41;;;20.54;56.09
42887;BME280;29032;56.028;92.904;2023-06-10T02:14:00;98928.88;;;20.76;55.58
42887;BME280;29032;56.028;92.904;2023-06-10T02:19:02;98933.13;;;20.87;54.52
42887;BME280;29032;56.028;92.904;2023-06-10T02:24:07;98924.25;;;21.02;54.61
42887;BME280;29032;56.028;92.904;2023-06-10T02:29:27;98924.38;;;21.04;53.96
42887;BME280;29032;56.028;92.904;2023-06-10T02:34:30;98928.47;;;21.13;54.42
42887;BME280;29032;56.028;92.904;2023-06-10T02:39:37;98938.00;;;21.29;53.65
42887;BME280;29032;56.028;92.904;2023-06-10T02:44:43;98934.44;;;21.29;53.72
42887;BME280;29032;56.028;92.904;2023-06-10T02:49:51;98933.59;;;21.38;53.43
42887;BME280;29032;56.028;92.904;2023-06-10T02:54:54;98927.84;;;21.47;53.58
42887;BME280;29032;56.028;92.904;2023-06-10T02:59:56;98930.44;;;21.43;53.39
42887;BME280;29032;56.028;92.904;2023-06-10T03:04:59;98942.44;;;21.44;53.16
42887;BME280;29032;56.028;92.904;2023-06-10T03:10:03;98951.78;;;21.46;53.06
42887;BME280;29032;56.028;92.904;2023-06-10T03:15:06;98932.00;;;21.46;53.15
42887;BME280;29032;56.028;92.904;2023-06-10T03:20:10;98934.59;;;21.54;54.43
42887;BME280;29032;56.028;92.904;2023-06-10T03:30:54;98919.91;;;21.67;53.49
42887;BME280;29032;56.028;92.904;2023-06-10T03:36:14;98936.84;;;21.67;53.36
42887;BME280;29032;56.028;92.904;2023-06-10T03:41:19;98937.34;;;21.75;55.43
42887;BME280;29032;56.028;92.904;2023-06-10T03:46:21;98957.00;;;21.73;53.30
42887;BME280;29032;56.028;92.904;2023-06-10T03:51:24;98935.03;;;21.72;52.36
42887;BME280;29032;56.028;92.904;2023-06-10T03:56:28;98948.19;;;21.79;52.26
42887;BME280;29032;56.028;92.904;2023-06-10T04:01:30;98945.47;;;21.69;53.26
42887;BME280;29032;56.028;92.904;2023-06-10T04:06:50;98941.41;;;21.72;53.93
42887;BME280;29032;56.028;92.904;2023-06-10T04:11:54;98939.34;;;21.85;53.86
42887;BME280;29032;56.028;92.904;2023-06-10T04:16:56;98930.59;;;21.81;54.16
42887;BME280;29032;56.028;92.904;2023-06-10T04:22:00;98926.72;;;21.86;55.35
42887;BME280;29032;56.028;92.904;2023-06-10T04:27:05;98945.25;;;21.89;55.68
42887;BME280;29032;56.028;92.904;2023-06-10T04:32:07;98952.97;;;21.77;54.40
42887;BME280;29032;56.028;92.904;2023-06-10T04:37:10;98950.97;;;21.67;53.36
42887;BME280;29032;56.028;92.904;2023-06-10T04:42:14;98948.06;;;21.77;54.14
42887;BME280;29032;56.028;92.904;2023-06-10T04:47:17;98943.53;;;21.84;52.76
42887;BME280;29032;56.028;92.904;2023-06-10T04:52:20;98934.22;;;21.93;52.01
42887;BME280;29032;56.028;92.904;2023-06-10T04:57:24;98940.63;;;22.05;53.21
42887;BME280;29032;56.028;92.904;2023-06-10T05:02:44;98951.91;;;22.28;53.63
42887;BME280;29032;56.028;92.904;2023-06-10T05:07:46;98945.16;;;21.98;53.81
42887;BME280;29032;56.028;92.904;2023-06-10T05:12:49;98952.38;;;21.90;56.04
42887;BME280;29032;56.028;92.904;2023-06-10T05:17:51;98956.13;;;21.59;56.38
42887;BME280;29032;56.028;92.904;2023-06-10T05:28:15;98937.28;;;21.40;55.28
42887;BME280;29032;56.028;92.904;2023-06-10T05:38:55;98922.84;;;21.58;54.47
42887;BME280;29032;56.028;92.904;2023-06-10T05:43:59;98924.16;;;21.45;55.82
42887;BME280;29032;56.028;92.904;2023-06-10T05:49:20;98918.19;;;21.62;54.04
42887;BME280;29032;56.028;92.904;2023-06-10T05:54:22;98929.69;;;21.43;53.83
42887;BME280;29032;56.028;92.904;2023-06-10T05:59:25;98934.59;;;21.42;54.29
42887;BME280;29032;56.028;92.904;2023-06-10T06:04:46;98929.19;;;21.35;53.91
42887;BME280;29032;56.028;92.904;2023-06-10T06:09:48;98912.97;;;21.35;54.24
42887;BME280;29032;56.028;92.904;2023-06-10T06:15:10;98910.28;;;21.37;54.96
42887;BME280;29032;56.028;92.904;2023-06-10T06:20:31;98904.59;;;21.26;55.35
42887;BME280;29032;56.028;92.904;2023-06-10T06:25:33;98874.81;;;21.01;56.88
42887;BME280;29032;56.028;92.904;2023-06-10T06:30:36;98881.00;;;21.09;57.05
42887;BME280;29032;56.028;92.904;2023-06-10T06:35:57;98878.38;;;21.02;56.52
42887;BME280;29032;56.028;92.904;2023-06-10T06:41:17;98880.47;;;21.01;57.04
42887;BME280;29032;56.028;92.904;2023-06-10T06:46:21;98898.84;;;21.02;58.69
42887;BME280;29032;56.028;92.904;2023-06-10T06:51:23;98893.66;;;20.87;58.62
42887;BME280;29032;56.028;92.904;2023-06-10T06:56:25;98879.81;;;20.70;59.49
42887;BME280;29032;56.028;92.904;2023-06-10T07:01:29;98900.66;;;20.64;59.87
42887;BME280;29032;56.028;92.904;2023-06-10T07:06:31;98909.34;;;20.47;59.82
42887;BME280;29032;56.028;92.904;2023-06-10T07:11:33;98927.63;;;20.46;60.21
42887;BME280;29032;56.028;92.904;2023-06-10T07:16:37;98900.25;;;20.37;60.36
42887;BME280;29032;56.028;92.904;2023-06-10T07:21:39;98891.53;;;20.23;60.23
42887;BME280;29032;56.028;92.904;2023-06-10T07:26:41;98891.25;;;20.19;60.31
42887;BME280;29032;56.028;92.904;2023-06-10T07:31:45;98899.09;;;20.21;60.63
42887;BME280;29032;56.028;92.904;2023-06-10T07:36:47;98901.25;;;20.10;61.66
42887;BME280;29032;56.028;92.904;2023-06-10T07:52:31;98894.03;;;19.98;61.87
42887;BME280;29032;56.028;92.904;2023-06-10T07:57:33;98897.47;;;19.96;62.11
42887;BME280;29032;56.028;92.904;2023-06-10T08:02:37;98905.50;;;19.90;62.39
42887;BME280;29032;56.028;92.904;2023-06-10T08:07:40;98926.25;;;19.85;62.54
42887;BME280;29032;56.028;92.904;2023-06-10T08:13:00;98928.13;;;20.02;62.80
42887;BME280;29032;56.028;92.904;2023-06-10T08:18:04;98941.53;;;19.82;63.37
42887;BME280;29032;56.028;92.904;2023-06-10T08:23:06;98927.34;;;19.70;63.98
42887;BME280;29032;56.028;92.904;2023-06-10T08:28:08;98933.59;;;19.59;64.03
42887;BME280;29032;56.028;92.904;2023-06-10T08:33:12;98922.34;;;19.59;65.21
42887;BME280;29032;56.028;92.904;2023-06-10T08:38:14;98925.47;;;19.53;65.00
42887;BME280;29032;56.028;92.904;2023-06-10T08:43:21;98937.75;;;19.58;64.55
42887;BME280;29032;56.028;92.904;2023-06-10T08:48:27;98940.56;;;19.48;64.67
42887;BME280;29032;56.028;92.904;2023-06-10T08:53:32;98941.19;;;19.37;64.77
42887;BME280;29032;56.028;92.904;2023-06-10T08:58:36;98949.47;;;19.25;64.66
42887;BME280;29032;56.028;92.904;2023-06-10T09:03:39;98948.88;;;19.27;64.90
42887;BME280;29032;56.028;92.904;2023-06-10T09:08:43;98938.81;;;19.24;65.71
42887;BME280;29032;56.028;92.904;2023-06-10T09:13:45;98951.69;;;19.27;65.40
42887;BME280;29032;56.028;92.904;2023-06-10T09:18:49;98959.69;;;19.30;65.85
42887;BME280;29032;56.028;92.904;2023-06-10T09:23:52;98968.69;;;19.29;66.20
42887;BME280;29032;56.028;92.904;2023-06-10T09:29:02;98952.44;;;19.37;64.86
42887;BME280;29032;56.028;92.904;2023-06-10T09:34:10;98960.13;;;19.46;65.76
42887;BME280;29032;56.028;92.904;2023-06-10T09:39:31;98960.53;;;19.62;64.40
42887;BME280;29032;56.028;92.904;2023-06-10T09:44:33;98958.34;;;19.41;65.04
42887;BME280;29032;56.028;92.904;2023-06-10T09:49:55;98955.50;;;19.70;64.96
42887;BME280;29032;56.028;92.904;2023-06-10T09:55:00;98973.19;;;19.51;64.44
42887;BME280;29032;56.028;92.904;2023-06-10T10:00:22;98970.94;;;19.40;65.50
42887;BME280;29032;56.028;92.904;2023-06-10T10:05:44;98983.22;;;19.54;64.78
42887;BME280;29032;56.028;92.904;2023-06-10T10:10:46;98978.63;;;19.20;65.44
42887;BME280;29032;56.028;92.904;2023-06-10T10:15:48;98970.78;;;19.19;65.43
42887;BME280;29032;56.028;92.904;2023-06-10T10:20:53;98963.25;;;19.31;66.63
42887;BME280;29032;56.028;92.904;2023-06-10T10:25:57;98963.38;;;19.33;65.51
42887;BME280;29032;56.028;92.904;2023-06-10T10:31:08;98976.13;;;19.34;65.26
42887;BME280;29032;56.028;92.904;2023-06-10T10:36:13;98989.31;;;19.32;65.12
42887;BME280;29032;56.028;92.904;2023-06-10T10:41:16;98989.47;;;19.24;64.84
42887;BME280;29032;56.028;92.904;2023-06-10T10:46:18;98986.19;;;19.18;64.90
42887;BME280;29032;56.028;92.904;2023-06-10T10:51:22;98986.47;;;19.22;65.33
42887;BME280;29032;56.028;92.904;2023-06-10T10:56:27;98997.00;;;19.21;64.58
42887;BME280;29032;56.028;92.904;2023-06-10T11:01:39;99017.59;;;19.24;64.28
42887;BME280;29032;56.028;92.904;2023-06-10T11:06:52;99029.13;;;19.09;63.91
42887;BME280;29032;56.028;92.904;2023-06-10T11:11:56;99030.84;;;18.94;63.75
42887;BME280;29032;56.028;92.904;2023-06-10T11:16:59;99041.34;;;18.84;63.54
42887;BME280;29032;56.028;92.904;2023-06-10T11:22:05;99037.34;;;18.87;62.83
42887;BME280;29032;56.028;92.904;2023-06-10T11:27:18;99029.97;;;18.92;62.07
42887;BME280;29032;56.028;92.904;2023-06-10T11:32:20;99034.81;;;18.72;63.24
42887;BME280;29032;56.028;92.904;2023-06-10T11:37:24;99027.31;;;18.84;64.61
42887;BME280;29032;56.028;92.904;2023-06-10T11:42:26;99030.25;;;18.86;65.18
42887;BME280;29032;56.028;92.904;2023-06-10T11:47:28;99029.09;;;18.89;65.19
42887;BME280;29032;56.028;92.904;2023-06-10T11:52:50;99026.88;;;18.97;63.38
42887;BME280;29032;56.028;92.904;2023-06-10T11:57:52;99031.72;;;18.87;63.64
42887;BME280;29032;56.028;92.904;2023-06-10T12:02:57;99058.13;;;19.01;62.70
42887;BME280;29032;56.028;92.904;2023-06-10T12:08:11;99075.59;;;19.10;63.42
42887;BME280;29032;56.028;92.904;2023-06-10T12:13:13;99077.03;;;18.91;63.07
42887;BME280;29032;56.028;92.904;2023-06-10T12:18:18;99081.19;;;19.00;63.29
42887;BME280;29032;56.028;92.904;2023-06-10T12:23:22;99088.59;;;18.95;62.80
42887;BME280;29032;56.028;92.904;2023-06-10T12:28:25;99099.22;;;18.87;62.77
42887;BME280;29032;56.028;92.904;2023-06-10T12:33:45;99121.47;;;19.02;62.74
42887;BME280;29032;56.028;92.904;2023-06-10T12:39:07;99138.75;;;18.99;63.16
42887;BME280;29032;56.028;92.904;2023-06-10T12:44:10;99149.50;;;18.73;63.25
42887;BME280;29032;56.028;92.904;2023-06-10T12:49:19;99153.06;;;18.84;63.38
42887;BME280;29032;56.028;92.904;2023-06-10T12:54:23;99143.41;;;18.77;63.74
42887;BME280;29032;56.028;92.904;2023-06-10T12:59:25;99103.59;;;18.71;65.07
42887;BME280;29032;56.028;92.904;2023-06-10T13:04:27;99103.59;;;18.71;65.29
42887;BME280;29032;56.028;92.904;2023-06-10T13:09:30;99132.88;;;18.68;66.00
42887;BME280;29032;56.028;92.904;2023-06-10T13:19:52;99118.34;;;18.62;63.20
42887;BME280;29032;56.028;92.904;2023-06-10T13:24:56;99113.22;;;18.68;63.61
42887;BME280;29032;56.028;92.904;2023-06-10T13:29:58;99148.28;;;18.67;63.05
42887;BME280;29032;56.028;92.904;2023-06-10T13:35:00;99135.53;;;18.66;62.78
42887;BME280;29032;56.028;92.904;2023-06-10T13:40:05;99158.81;;;18.76;62.73
42887;BME280;29032;56.028;92.904;2023-06-10T13:45:07;99176.69;;;18.71;62.28
42887;BME280;29032;56.028;92.904;2023-06-10T13:50:10;99153.91;;;18.67;61.39
42887;BME280;29032;56.028;92.904;2023-06-10T13:55:31;99180.91;;;18.89;61.01
42887;BME280;29032;56.028;92.904;2023-06-10T14:00:34;99165.13;;;18.67;61.12
42887;BME280;29032;56.028;92.904;2023-06-10T14:05:36;99157.72;;;18.62;61.24
42887;BME280;29032;56.028;92.904;2023-06-10T14:10:39;99176.78;;;18.63;61.38
42887;BME280;29032;56.028;92.904;2023-06-10T14:15:59;99184.59;;;18.82;61.84
42887;BME280;29032;56.028;92.904;2023-06-10T14:21:01;99188.78;;;18.64;61.37
42887;BME280;29032;56.028;92.904;2023-06-10T14:26:05;99187.63;;;18.67;61.42
42887;BME280;29032;56.028;92.904;2023-06-10T14:31:07;99193.34;;;18.59;62.46
42887;BME280;29032;56.028;92.904;2023-06-10T14:36:09;99198.88;;;18.67;61.43
42887;BME280;29032;56.028;92.904;2023-06-10T14:41:13;99217.94;;;18.68;61.55
42887;BME280;29032;56.028;92.904;2023-06-10T14:46:15;99212.50;;;18.53;61.87
42887;BME280;29032;56.028;92.904;2023-06-10T14:51:17;99232.44;;;18.47;63.48
42887;BME280;29032;56.028;92.904;2023-06-10T14:56:20;99236.66;;;18.39;61.10
42887;BME280;29032;56.028;92.904;2023-06-10T15:01:22;99239.41;;;18.12;61.09
42887;BME280;29032;56.028;92.904;2023-06-10T15:06:24;99230.56;;;17.98;63.23
42887;BME280;29032;56.028;92.904;2023-06-10T15:11:28;99262.13;;;18.06;63.39
42887;BME280;29032;56.028;92.904;2023-06-10T15:16:30;99263.19;;;18.11;60.38
42887;BME280;29032;56.028;92.904;2023-06-10T15:21:32;99284.75;;;18.26;62.43
42887;BME280;29032;56.028;92.904;2023-06-10T15:26:35;99276.81;;;18.32;61.90
42887;BME280;29032;56.028;92.904;2023-06-10T15:31:37;99258.97;;;18.19;61.93
42887;BME280;29032;56.028;92.904;2023-06-10T15:36:39;99231.81;;;18.05;62.51
42887;BME280;29032;56.028;92.904;2023-06-10T15:41:43;99224.63;;;18.11;63.13
42887;BME280;29032;56.028;92.904;2023-06-10T15:46:45;99267.50;;;18.12;61.62
42887;BME280;29032;56.028;92.904;2023-06-10T15:51:47;99301.59;;;18.08;60.30
42887;BME280;29032;56.028;92.904;2023-06-10T15:56:51;99304.41;;;18.08;60.05
42887;BME280;29032;56.028;92.904;2023-06-10T16:02:11;99294.16;;;18.20;58.99
42887;BME280;29032;56.028;92.904;2023-06-10T16:07:13;99299.50;;;17.91;59.04
42887;BME280;29032;56.028;92.904;2023-06-10T16:17:37;99290.34;;;17.91;59.47
42887;BME280;29032;56.028;92.904;2023-06-10T16:28:01;99313.94;;;17.88;59.14
42887;BME280;29032;56.028;92.904;2023-06-10T16:33:03;99329.53;;;17.81;57.97
42887;BME280;29032;56.028;92.904;2023-06-10T16:38:05;99325.34;;;17.65;57.41
42887;BME280;29032;56.028;92.904;2023-06-10T16:43:08;99326.56;;;17.54;57.54
42887;BME280;29032;56.028;92.904;2023-06-10T16:48:29;99317.66;;;17.41;57.49
42887;BME280;29032;56.028;92.904;2023-06-10T16:53:31;99318.81;;;17.37;57.45
42887;BME280;29032;56.028;92.904;2023-06-10T16:58:35;99314.88;;;17.41;57.70
42887;BME280;29032;56.028;92.904;2023-06-10T17:03:55;99334.31;;;17.38;57.26
42887;BME280;29032;56.028;92.904;2023-06-10T17:14:19;99359.75;;;17.41;57.00
42887;BME280;29032;56.028;92.904;2023-06-10T17:19:21;99347.31;;;17.26;56.64
42887;BME280;29032;56.028;92.904;2023-06-10T17:24:23;99352.22;;;17.10;57.74
42887;BME280;29032;56.028;92.904;2023-06-10T17:29:27;99363.50;;;17.03;57.53
42887;BME280;29032;56.028;92.904;2023-06-10T17:34:30;99352.72;;;16.92;58.05
42887;BME280;29032;56.028;92.904;2023-06-10T17:39:32;99343.78;;;16.86;58.40
42887;BME280;29032;56.028;92.904;2023-06-10T17:44:36;99361.47;;;16.96;57.92
42887;BME280;29032;56.028;92.904;2023-06-10T17:49:57;99374.16;;;16.97;58.30
42887;BME280;29032;56.028;92.904;2023-06-10T17:54:59;99373.25;;;16.94;57.84
42887;BME280;29032;56.028;92.904;2023-06-10T18:00:39;99372.44;;;17.09;57.55
42887;BME280;29032;56.028;92.904;2023-06-10T18:05:41;99381.53;;;16.84;58.01
42887;BME280;29032;56.028;92.904;2023-06-10T18:10:43;99376.66;;;16.85;58.46
42887;BME280;29032;56.028;92.904;2023-06-10T18:15:47;99390.81;;;16.95;58.19
42887;BME280;29032;56.028;92.904;2023-06-10T18:20:49;99386.34;;;16.92;57.74
42887;BME280;29032;56.028;92.904;2023-06-10T18:25:51;99394.03;;;16.83;57.81
42887;BME280;29032;56.028;92.904;2023-06-10T18:30:54;99404.28;;;16.89;58.25
42887;BME280;29032;56.028;92.904;2023-06-10T18:36:15;99409.38;;;16.75;58.17
42887;BME280;29032;56.028;92.904;2023-06-10T18:41:17;99413.47;;;16.66;58.34
42887;BME280;29032;56.028;92.904;2023-06-10T18:46:21;99418.50;;;16.68;58.20
42887;BME280;29032;56.028;92.904;2023-06-10T18:51:23;99432.75;;;16.62;58.01
42887;BME280;29032;56.028;92.904;2023-06-10T18:56:25;99440.59;;;16.64;57.81
42887;BME280;29032;56.028;92.904;2023-06-10T19:01:28;99445.22;;;16.69;57.63
42887;BME280;29032;56.028;92.904;2023-06-10T19:06:49;99462.59;;;16.82;57.88
42887;BME280;29032;56.028;92.904;2023-06-10T19:11:51;99444.72;;;16.55;57.95
42887;BME280;29032;56.028;92.904;2023-06-10T19:17:13;99458.72;;;16.55;57.42
42887;BME280;29032;56.028;92.904;2023-06-10T19:22:15;99455.53;;;16.43;57.76
42887;BME280;29032;56.028;92.904;2023-06-10T19:27:17;99451.81;;;16.41;57.95
42887;BME280;29032;56.028;92.904;2023-06-10T19:32:20;99445.47;;;16.48;57.70
42887;BME280;29032;56.028;92.904;2023-06-10T19:37:22;99445.44;;;16.40;57.42
42887;BME280;29032;56.028;92.904;2023-06-10T19:42:24;99449.94;;;16.36;57.96
42887;BME280;29032;56.028;92.904;2023-06-10T19:47:46;99456.66;;;16.33;58.13
42887;BME280;29032;56.028;92.904;2023-06-10T19:52:48;99466.75;;;16.28;58.29
42887;BME280;29032;56.028;92.904;2023-06-10T19:57:50;99473.47;;;16.25;58.02
42887;BME280;29032;56.028;92.904;2023-06-10T20:03:12;99479.06;;;16.25;58.18
42887;BME280;29032;56.028;92.904;2023-06-10T20:08:14;99482.03;;;16.19;58.06
42887;BME280;29032;56.028;92.904;2023-06-10T20:13:16;99496.03;;;16.19;58.07
42887;BME280;29032;56.028;92.904;2023-06-10T20:18:20;99488.03;;;16.23;57.64
42887;BME280;29032;56.028;92.904;2023-06-10T20:23:40;99497.19;;;16.32;58.08
42887;BME280;29032;56.028;92.904;2023-06-10T20:29:01;99485.56;;;16.05;58.19
42887;BME280;29032;56.028;92.904;2023-06-10T20:34:05;99490.63;;;16.06;58.28
42887;BME280;29032;56.028;92.904;2023-06-10T20:39:07;99496.94;;;15.91;58.09
42887;BME280;29032;56.028;92.904;2023-06-10T20:44:09;99504.59;;;15.91;58.47
42887;BME280;29032;56.028;92.904;2023-06-10T20:49:13;99506.28;;;16.01;58.12
42887;BME280;29032;56.028;92.904;2023-06-10T20:59:35;99514.13;;;16.03;58.03
42887;BME280;29032;56.028;92.904;2023-06-10T21:04:39;99517.47;;;15.94;58.21
42887;BME280;29032;56.028;92.904;2023-06-10T21:09:41;99518.94;;;15.87;58.19
42887;BME280;29032;56.028;92.904;2023-06-10T21:14:43;99524.53;;;15.80;58.26
42887;BME280;29032;56.028;92.904;2023-06-10T21:19:46;99536.47;;;15.80;58.29
42887;BME280;29032;56.028;92.904;2023-06-10T21:24:48;99548.81;;;15.85;58.63
42887;BME280;29032;56.028;92.904;2023-06-10T21:29:50;99551.06;;;15.94;58.06
42887;BME280;29032;56.028;92.904;2023-06-10T21:34:54;99559.31;;;16.07;57.08
42887;BME280;29032;56.028;92.904;2023-06-10T21:39:56;99572.16;;;15.95;57.30
42887;BME280;29032;56.028;92.904;2023-06-10T21:45:16;99574.06;;;16.15;57.44
42887;BME280;29032;56.028;92.904;2023-06-10T21:50:20;99572.56;;;16.07;57.08
42887;BME280;29032;56.028;92.904;2023-06-10T21:55:22;99584.09;;;16.03;57.27
42887;BME280;29032;56.028;92.904;2023-06-10T22:00:24;99583.91;;;15.93;56.91
42887;BME280;29032;56.028;92.904;2023-06-10T22:05:27;99585.41;;;15.94;57.19
42887;BME280;29032;56.028;92.904;2023-06-10T22:10:48;99592.84;;;15.92;57.00
42887;BME280;29032;56.028;92.904;2023-06-10T22:15:50;99609.88;;;16.01;57.52
42887;BME280;29032;56.028;92.904;2023-06-10T22:20:54;99607.47;;;16.13;57.25
42887;BME280;29032;56.028;92.904;2023-06-10T22:26:14;99614.34;;;16.05;56.66
42887;BME280;29032;56.028;92.904;2023-06-10T22:31:34;99609.16;;;16.16;56.79
42887;BME280;29032;56.028;92.904;2023-06-10T22:41:58;99620.25;;;15.86;56.84
42887;BME280;29032;56.028;92.904;2023-06-10T22:47:18;99636.31;;;15.85;56.77
42887;BME280;29032;56.028;92.904;2023-06-10T22:52:40;99636.13;;;15.91;56.43
42887;BME280;29032;56.028;92.904;2023-06-10T22:58:00;99649.97;;;16.04;55.95
42887;BME280;29032;56.028;92.904;2023-06-10T23:03:02;99655.63;;;15.75;56.53
42887;BME280;29032;56.028;92.904;2023-06-10T23:08:06;99650.63;;;15.82;56.18
42887;BME280;29032;56.028;92.904;2023-06-10T23:13:26;99659.22;;;15.84;56.27
42887;BME280;29032;56.028;92.904;2023-06-10T23:18:28;99671.56;;;15.88;55.91
42887;BME280;29032;56.028;92.904;2023-06-10T23:23:32;99672.34;;;15.96;56.09
42887;BME280;29032;56.028;92.904;2023-06-10T23:28:34;99679.44;;;15.97;55.86
42887;BME280;29032;56.028;92.904;2023-06-10T23:33:36;99682.81;;;16.03;55.49
42887;BME280;29032;56.028;92.904;2023-06-10T23:38:40;99690.66;;;16.05;54.58
42887;BME280;29032;56.028;92.904;2023-06-10T23:43:42;99707.09;;;16.01;54.56
42887;BME280;29032;56.028;92.904;2023-06-10T23:48:44;99714.00;;;16.00;54.26
42887;BME280;29032;56.028;92.904;2023-06-10T23:53:47;99725.78;;;16.06;55.45
42887;BME280;29032;56.028;92.904;2023-06-10T23:58:49;99733.25;;;16.11;54.53
